Terminal Aerodrome Forecast
Issued by NWS Mobile, AL

Home | Current Version | Previous Version | Text Only | Print | Product List | Glossary On
Versions: 1 2 3 4 5 6 7 8 9 10 11 12 13
000
FTUS44 KMOB 201725
TAFPNS
TAF
KPNS 201725Z 2018/2118 13007KT P6SM FEW070 BKN150 BKN250
     FM210500 10005KT P6SM SCT090=

USA.gov is the U.S. government's official web portal to all federal, state and local government web resources and services.